Catàleg de serveis del Meteocat
Campanya meteocatpedra

Dades de l'estació automàtica Maials

?
?
Resum diari 23:00 TU
Dades diàries de l'estació meteorològica
Temperatura mitjana 24.0 °C
Temperatura màxima 31.7 °C 15:51 TU
Temperatura mínima 16.8 °C 4:55 TU
Humitat relativa mitjana 49%
Precipitació acumulada 0.0 mm
Ratxa màxima del vent (2 m) 16.2 km/h - 243º 14:40 TU
Irradiació solar global 30.5 MJ/m2

El tram horari està expressat en Temps Universal (TU). Cal sumar una hora en horari d'hivern i dues en horari d'estiu per passar a l'hora oficial.

Maials

Metadades estació meteorol´gica
Municipi Maials
Comarca Segrià
Altitud 350 m
Data alta 20.12.2000
Estat actual Operativa
Dades de període
Període
TU
TM
°C
TX
°C
TN
°C
HRM
%
PPT
mm
VVM (2 m)
km/h
DVM (2 m)
graus
VVX (2 m)
km/h
RS
W/m2
00:00 - 00:30 20.2 20.6 19.8 59 0.0 5.0 249 12.6 0
00:30 - 01:00 19.5 19.8 19.2 60 0.0 5.0 249 14.4 0
01:00 - 01:30 19.1 19.2 18.9 60 0.0 5.8 246 14.8 0
01:30 - 02:00 18.7 18.8 18.5 60 0.0 5.0 244 12.6 0
02:00 - 02:30 18.3 18.5 18.1 61 0.0 4.7 249 10.4 0
02:30 - 03:00 17.9 18.1 17.8 63 0.0 4.3 255 11.2 0
03:00 - 03:30 17.7 17.8 17.6 64 0.0 4.3 254 12.6 0
03:30 - 04:00 17.5 17.7 17.4 64 0.0 4.3 251 12.6 0
04:00 - 04:30 17.2 17.4 17.1 66 0.0 3.6 250 10.4 0
04:30 - 05:00 16.9 17.0 16.8 68 0.0 2.9 259 7.9 12
05:00 - 05:30 17.1 17.4 16.9 68 0.0 3.6 254 10.4 60
05:30 - 06:00 17.8 18.2 17.5 66 0.0 3.6 251 10.8 132
06:00 - 06:30 18.6 19.0 18.2 65 0.0 4.3 251 11.9 219
06:30 - 07:00 19.4 19.9 18.9 63 0.0 4.3 252 11.5 318
07:00 - 07:30 20.2 20.6 19.9 61 0.0 4.3 255 11.9 406
07:30 - 08:00 21.1 21.6 20.5 58 0.0 4.0 254 11.2 507
08:00 - 08:30 21.9 22.1 21.5 57 0.0 4.0 275 10.4 596
08:30 - 09:00 22.6 23.1 21.9 55 0.0 3.6 273 13.3 680
09:00 - 09:30 23.4 24.1 22.8 54 0.0 4.0 277 11.5 758
09:30 - 10:00 24.1 24.7 23.3 53 0.0 4.0 269 10.8 825
10:00 - 10:30 25.3 26.1 24.5 50 0.0 4.0 259 12.2 880
10:30 - 11:00 26.1 26.8 25.5 48 0.0 4.0 288 11.2 923
11:00 - 11:30 26.9 27.7 26.3 45 0.0 4.0 283 11.9 955
11:30 - 12:00 28.0 28.9 27.7 41 0.0 4.0 281 14.4 969
12:00 - 12:30 28.8 29.5 28.1 38 0.0 4.0 309 11.9 976
12:30 - 13:00 29.1 29.5 28.5 37 0.0 4.7 282 14.0 967
13:00 - 13:30 30.0 30.5 29.3 37 0.0 5.0 273 13.7 945
13:30 - 14:00 30.2 30.7 29.9 36 0.0 5.4 254 14.4 914
14:00 - 14:30 30.4 30.9 30.1 35 0.0 5.4 255 14.8 852
14:30 - 15:00 30.8 31.4 30.4 33 0.0 5.4 277 16.2 799
15:00 - 15:30 31.0 31.4 30.6 32 0.0 5.8 257 16.2 724
15:30 - 16:00 31.2 31.7 30.7 28 0.0 5.4 254 12.2 643
16:00 - 16:30 31.3 31.6 31.0 25 0.0 4.7 268 13.3 549
16:30 - 17:00 31.1 31.7 30.8 25 0.0 4.7 257 11.9 449
17:00 - 17:30 31.0 31.1 30.8 24 0.0 4.0 268 11.9 354
17:30 - 18:00 30.5 30.8 30.2 24 0.0 4.7 255 15.5 261
18:00 - 18:30 29.8 30.1 29.6 25 0.0 4.7 258 13.3 167
18:30 - 19:00 28.9 29.6 28.2 27 0.0 3.2 272 11.5 74
19:00 - 19:30 27.3 28.2 26.1 30 0.0 2.5 260 11.5 15
19:30 - 20:00 25.0 26.0 24.5 36 0.0 1.4 257 5.8 2
20:00 - 20:30 24.2 24.6 23.9 37 0.0 1.8 261 8.3 2
20:30 - 21:00 24.0 24.5 22.1 37 0.0 1.4 241 6.8 2
21:00 - 21:30 22.6 23.6 21.8 40 0.0 2.5 176 10.1 2
21:30 - 22:00 22.1 22.5 21.7 55 0.0 2.5 177 11.5 2
22:00 - 22:30 21.7 21.8 21.4 70 0.0 4.7 166 12.2 2
22:30 - 23:00 20.7 21.4 20.3 74 0.0 3.6 177 9.0 2
23:00 - 23:30 20.4 20.5 20.1 77 0.0 3.6 179 9.0 2

Les dades en taronja només han passat un control de qualitat automàtic. Resta pendent la seva validació definitiva.